»·PEaware :: N227AG CYYR-KSKA

N227AG :: CYYR-KSKA

FLIGHT INFORMATION

Flight Status: Arrived
Operator: Privately registered:
United States
More flights under this callsign
Pilot: Alfa N. (19744)
Aircraft: CESSNA 208 CARAVAN
(C208)
More flights by this aircraft type
Origin: CYYR Goose Bay
Canada
Destination: KSKA Fairchild AFB
United States
More flights between these airports :: More routes between these airports
Route: +DCT UKSAP DCT MLP HILIE2
File this flight plan on PilotEdge
Remarks: VFR
Altitude:
(Current/Filed)
10,000ft
Speed:
(Current/Filed)
115kts
Departed: 16-Jul-18 12:27 PM
Arrived: 16-Jul-18 02:02 PM
Distance/Time
Traveled:
2152nm/1:34
Distance/Time
To Go:
Arrived

Flight Plot

Page will automatically refresh every two minutes.

Flight plan parsing failed; only flown route is shown


Map Options




Map Legend


Flown Route
Filed Route
Departure Airport
Arrival Airport
Navaid (VOR, NDB)
Fix

Horizontal Profiles

Position Reports

Time Latitude Longitude Heading Altitude Ground
Speed
16-Jul-18 12:27 49.797400 -115.056693 190 10036ft 163kts
16-Jul-18 12:28 49.752928 -115.068360 190 10036ft 163kts
16-Jul-18 12:29 49.708191 -115.080075 191 10036ft 163kts
16-Jul-18 12:30 49.663617 -115.091725 191 10036ft 162kts
16-Jul-18 12:31 49.619008 -115.103362 191 10036ft 162kts
16-Jul-18 12:32 49.574571 -115.114933 191 10036ft 162kts
16-Jul-18 12:33 49.529880 -115.126549 191 10036ft 162kts
16-Jul-18 12:34 49.485442 -115.138078 191 10036ft 162kts
16-Jul-18 12:35 49.440730 -115.149658 191 10018ft 163kts
16-Jul-18 12:36 49.396138 -115.161183 191 10018ft 162kts
16-Jul-18 12:37 49.351718 -115.172643 191 10018ft 162kts
16-Jul-18 12:38 49.307337 -115.184072 191 10018ft 162kts
16-Jul-18 12:39 49.262911 -115.195492 191 10018ft 162kts
16-Jul-18 12:40 49.218453 -115.206900 191 10018ft 162kts
16-Jul-18 12:41 49.173924 -115.218306 191 10018ft 162kts
16-Jul-18 12:42 49.129587 -115.229641 191 10018ft 162kts
16-Jul-18 12:43 49.085183 -115.240980 191 10018ft 162kts
16-Jul-18 12:44 49.044301 -115.251397 190 10018ft 161kts
16-Jul-18 12:45 49.000070 -115.262645 190 10018ft 161kts
16-Jul-18 12:46 48.955920 -115.273852 190 10018ft 161kts
16-Jul-18 12:47 48.911958 -115.284980 190 10018ft 161kts
16-Jul-18 12:48 48.867961 -115.296105 190 10018ft 161kts
16-Jul-18 12:49 48.823878 -115.307234 190 10018ft 161kts
16-Jul-18 12:50 48.779920 -115.318313 190 10018ft 161kts
16-Jul-18 12:51 48.735716 -115.329434 190 10018ft 161kts
16-Jul-18 12:52 48.691707 -115.340486 190 10018ft 161kts
16-Jul-18 12:53 48.647489 -115.351572 190 10018ft 161kts
16-Jul-18 12:54 48.603364 -115.362612 190 10013ft 161kts
16-Jul-18 12:55 48.561139 -115.373160 190 10006ft 161kts
16-Jul-18 12:56 48.517112 -115.384163 189 9997ft 160kts
16-Jul-18 12:57 48.473348 -115.395035 189 9988ft 159kts
16-Jul-18 12:58 48.429575 -115.405912 189 9986ft 159kts
16-Jul-18 12:59 48.385940 -115.416736 189 9985ft 159kts
16-Jul-18 13:00 48.342389 -115.427521 189 9983ft 159kts
16-Jul-18 13:01 48.298796 -115.438298 189 9981ft 159kts
16-Jul-18 13:02 48.262444 -115.447271 189 9981ft 159kts
16-Jul-18 13:03 48.218827 -115.458020 189 9981ft 159kts
16-Jul-18 13:04 48.167875 -115.470553 189 9981ft 159kts
16-Jul-18 13:05 48.124318 -115.481247 189 9981ft 159kts
16-Jul-18 13:06 48.080915 -115.491884 189 9981ft 159kts
16-Jul-18 13:07 48.037941 -115.502399 189 9981ft 159kts
16-Jul-18 13:08 48.001649 -115.511265 189 9981ft 159kts
16-Jul-18 13:09 47.958013 -115.521908 189 9981ft 159kts
16-Jul-18 13:10 47.914449 -115.532516 189 9981ft 159kts
16-Jul-18 13:11 47.871042 -115.543065 189 9981ft 159kts
16-Jul-18 13:12 47.827332 -115.553671 189 9981ft 159kts
16-Jul-18 13:13 47.783665 -115.564251 189 9981ft 159kts
16-Jul-18 13:14 47.739933 -115.574828 189 9981ft 159kts
16-Jul-18 13:15 47.696319 -115.585358 189 9981ft 159kts
16-Jul-18 13:16 47.652573 -115.595905 189 9983ft 159kts
16-Jul-18 13:17 47.608936 -115.606407 189 9986ft 159kts
16-Jul-18 13:18 47.565231 -115.616906 189 9990ft 159kts
16-Jul-18 13:19 47.521363 -115.627398 190 9995ft 160kts
16-Jul-18 13:20 47.477279 -115.637976 190 9998ft 161kts
16-Jul-18 13:21 47.460223 -115.687823 272 10000ft 159kts
16-Jul-18 13:22 47.464500 -115.753080 276 10000ft 160kts
16-Jul-18 13:23 47.469882 -115.818270 276 10000ft 160kts
16-Jul-18 13:24 47.475426 -115.883553 276 10000ft 160kts
16-Jul-18 13:25 47.480928 -115.948416 276 10000ft 160kts
16-Jul-18 13:26 47.486436 -116.013725 276 10009ft 159kts
16-Jul-18 13:27 47.491897 -116.078905 276 10009ft 160kts
16-Jul-18 13:28 47.497334 -116.144257 276 10009ft 160kts
16-Jul-18 13:29 47.502716 -116.209413 276 10009ft 160kts
16-Jul-18 13:30 47.508097 -116.275007 276 10009ft 160kts
16-Jul-18 13:31 47.513416 -116.340325 276 10008ft 160kts
16-Jul-18 13:32 47.518705 -116.405748 276 10008ft 160kts
16-Jul-18 13:33 47.523952 -116.471119 276 10008ft 160kts
16-Jul-18 13:34 47.529156 -116.536422 276 10008ft 160kts
16-Jul-18 13:35 47.534339 -116.601916 276 9999ft 160kts
16-Jul-18 13:36 47.539457 -116.667134 275 10000ft 160kts
16-Jul-18 13:37 47.544551 -116.732509 275 10000ft 160kts
16-Jul-18 13:38 47.549608 -116.797886 275 10000ft 159kts
16-Jul-18 13:39 47.554613 -116.863070 275 10000ft 159kts
16-Jul-18 13:40 47.559632 -116.928537 276 9997ft 159kts
16-Jul-18 13:41 47.566472 -116.991132 277 9988ft 142kts
16-Jul-18 13:42 47.585474 -117.029457 8 9759ft 143kts
16-Jul-18 13:43 47.625788 -117.022394 342 8776ft 150kts
16-Jul-18 13:44 47.663083 -117.050345 330 7780ft 151kts
16-Jul-18 13:45 47.700077 -117.079937 330 6780ft 151kts
16-Jul-18 13:46 47.736712 -117.109059 330 5983ft 138kts
16-Jul-18 13:47 47.765677 -117.131631 329 5975ft 102kts
16-Jul-18 13:48 47.792241 -117.152382 329 5984ft 113kts
16-Jul-18 13:49 47.816560 -117.166469 335 5940ft 86kts
16-Jul-18 13:50 47.817253 -117.198715 318 6733ft 136kts
16-Jul-18 13:51 47.857649 -117.233933 330 6699ft 184kts
16-Jul-18 13:52 47.881769 -117.298526 287 6755ft 187kts
16-Jul-18 13:53 47.884745 -117.364137 246 6748ft 132kts
16-Jul-18 13:54 47.867718 -117.400752 208 6739ft 93kts
16-Jul-18 13:55 47.837474 -117.423234 207 6753ft 142kts
16-Jul-18 13:56 47.800039 -117.451166 207 6600ft 162kts
16-Jul-18 13:57 47.756056 -117.474005 201 6107ft 172kts
16-Jul-18 13:58 47.714110 -117.503651 208 5589ft 165kts
16-Jul-18 13:59 47.672992 -117.535290 208 5050ft 160kts
16-Jul-18 14:00 47.642826 -117.569795 234 4084ft 115kts
16-Jul-18 14:01 47.629113 -117.607408 248 2889ft 97kts
16-Jul-18 14:02 47.620017 -117.638821 251 2465ft 51kts
16-Jul-18 14:03 47.617009 -117.649735 67 2465ft 25kts
16-Jul-18 14:04 47.618262 -117.646396 60 2465ft 0kts

Navigation Log

Ident Type
Flight plan parsing failed, navigation log unavailable